Time;durP1;ratioP1;P1;durP2;ratioP2;P2;SDS_P1;SDS_P2;PMS_P1;PMS_P2;Temp;Humidity;BMP_temperature;BMP_pressure;BME280_temperature;BME280_humidity;BME280_pressure;Samples;Min_cycle;Max_cycle;Signal;HPM_P1;HPM_P2
2022/03/05 00:02:19;;;;;;;0.80;0.80;;;16.20;63.70;;;;;;5056442;28;20037;-18
2022/03/05 00:04:45;;;;;;;0.57;0.57;;;16.20;63.70;;;;;;5065305;28;20040;-18
2022/03/05 00:07:11;;;;;;;0.75;0.75;;;16.30;63.70;;;;;;5077807;28;20051;-18
2022/03/05 00:09:36;;;;;;;0.70;0.70;;;16.20;63.70;;;;;;5077171;28;20071;-18
2022/03/05 00:12:02;;;;;;;0.70;0.70;;;16.20;63.80;;;;;;5077777;28;20447;-18
2022/03/05 00:14:28;;;;;;;0.95;0.88;;;16.20;63.80;;;;;;5070704;28;20049;-18
2022/03/05 00:16:53;;;;;;;0.77;0.77;;;16.20;63.80;;;;;;5064542;28;20052;-18
2022/03/05 00:19:19;;;;;;;1.00;1.00;;;16.20;63.80;;;;;;5063473;28;20049;-18
2022/03/05 00:21:46;;;;;;;0.77;0.77;;;16.20;63.80;;;;;;5057570;28;20055;-18
2022/03/05 00:24:11;;;;;;;0.50;0.50;;;16.20;63.90;;;;;;5057612;28;20048;-18
2022/03/05 00:26:37;;;;;;;0.60;0.60;;;16.20;63.80;;;;;;5056745;28;20041;-18
2022/03/05 00:29:03;;;;;;;0.73;0.70;;;16.20;63.80;;;;;;5057536;28;20051;-18
2022/03/05 00:31:28;;;;;;;0.77;0.77;;;16.20;63.80;;;;;;5056557;28;20041;-18
2022/03/05 00:33:54;;;;;;;0.63;0.60;;;16.20;63.90;;;;;;5057786;28;20075;-18
2022/03/05 00:36:19;;;;;;;0.70;0.70;;;16.10;63.90;;;;;;5056909;28;20044;-18
2022/03/05 00:38:45;;;;;;;0.60;0.60;;;16.20;63.80;;;;;;5057346;28;20048;-18
2022/03/05 00:41:11;;;;;;;0.75;0.75;;;16.20;63.70;;;;;;5057678;28;20048;-18
2022/03/05 00:43:37;;;;;;;0.80;0.80;;;16.20;63.80;;;;;;5055127;28;20064;-18
2022/03/05 00:46:02;;;;;;;0.82;0.70;;;16.20;63.80;;;;;;5066973;28;20600;-18
2022/03/05 00:48:28;;;;;;;1.38;0.70;;;16.10;63.80;;;;;;5056674;28;20048;-18
2022/03/05 00:50:53;;;;;;;0.68;0.68;;;16.20;63.90;;;;;;5057189;28;20041;-18
2022/03/05 00:53:21;;;;;;;0.70;0.70;;;16.10;63.80;;;;;;5054094;28;20055;-19
2022/03/05 00:55:47;;;;;;;0.90;0.90;;;16.10;63.80;;;;;;5056987;28;20048;-18
2022/03/05 00:58:14;;;;;;;0.68;0.68;;;16.20;63.90;;;;;;5056949;28;20049;-18
2022/03/05 01:00:40;;;;;;;0.80;0.80;;;16.10;63.80;;;;;;5056554;28;20053;-18
2022/03/05 01:03:06;;;;;;;0.60;0.60;;;16.10;63.80;;;;;;5055763;28;20041;-18
2022/03/05 01:05:31;;;;;;;0.73;0.70;;;16.10;64.00;;;;;;5069740;28;20049;-19
2022/03/05 01:07:57;;;;;;;0.90;0.90;;;16.10;64.00;;;;;;5075280;28;20124;-18
2022/03/05 01:10:23;;;;;;;1.02;1.02;;;16.10;63.90;;;;;;5065892;28;20041;-18
2022/03/05 01:12:49;;;;;;;1.00;0.93;;;16.10;63.90;;;;;;5065783;28;20080;-18
2022/03/05 01:15:14;;;;;;;0.80;0.80;;;16.10;64.00;;;;;;5065677;28;20037;-18
2022/03/05 01:17:40;;;;;;;0.75;0.75;;;16.10;64.00;;;;;;5056270;28;20493;-18
2022/03/05 01:20:07;;;;;;;0.90;0.90;;;16.10;64.00;;;;;;5075686;28;20044;-18
2022/03/05 01:22:32;;;;;;;0.80;0.70;;;16.10;64.00;;;;;;5074707;28;20047;-18
2022/03/05 01:24:58;;;;;;;0.70;0.70;;;16.10;64.00;;;;;;5076569;28;20041;-18
2022/03/05 01:27:24;;;;;;;0.70;0.70;;;16.10;63.80;;;;;;5075560;28;20068;-18
2022/03/05 01:29:50;;;;;;;1.00;1.00;;;16.10;64.00;;;;;;5075082;28;20041;-18
2022/03/05 01:32:16;;;;;;;0.90;0.90;;;16.10;63.90;;;;;;5075981;28;20393;-18
2022/03/05 01:34:41;;;;;;;0.70;0.70;;;16.10;64.00;;;;;;5074597;28;20037;-18
2022/03/05 01:37:07;;;;;;;1.20;1.10;;;16.10;64.00;;;;;;5074911;28;20056;-18
2022/03/05 01:39:32;;;;;;;0.70;0.68;;;16.10;63.90;;;;;;5075825;28;20046;-18
2022/03/05 01:41:58;;;;;;;0.95;0.95;;;16.10;63.90;;;;;;5070753;28;20060;-18
2022/03/05 01:44:24;;;;;;;1.05;1.05;;;16.10;63.90;;;;;;5055718;28;20047;-18
2022/03/05 01:46:49;;;;;;;0.93;0.93;;;16.00;63.80;;;;;;5055424;28;20509;-18
2022/03/05 01:49:15;;;;;;;0.90;0.90;;;16.00;63.90;;;;;;5056071;28;20127;-18
2022/03/05 01:51:41;;;;;;;0.70;0.70;;;16.00;63.90;;;;;;5055258;28;20044;-18
2022/03/05 01:54:07;;;;;;;0.90;0.90;;;16.00;64.00;;;;;;5054365;28;20049;-18
2022/03/05 01:56:33;;;;;;;0.80;0.80;;;16.00;63.80;;;;;;5055251;28;20082;-18
2022/03/05 01:58:59;;;;;;;0.73;0.73;;;16.00;63.90;;;;;;5054838;28;20045;-18
2022/03/05 02:01:25;;;;;;;0.55;0.55;;;16.00;64.20;;;;;;5055091;28;20052;-18
2022/03/05 02:03:51;;;;;;;0.60;0.60;;;16.00;63.90;;;;;;5070609;28;20045;-18
2022/03/05 02:06:17;;;;;;;0.77;0.77;;;16.00;63.70;;;;;;5091013;28;20054;-18
2022/03/05 02:08:43;;;;;;;0.60;0.60;;;16.00;63.60;;;;;;5069317;28;20041;-18
2022/03/05 02:11:09;;;;;;;0.55;0.55;;;16.00;63.60;;;;;;5061183;28;20040;-18
2022/03/05 02:13:36;;;;;;;0.60;0.60;;;16.00;63.60;;;;;;5055006;28;20107;-18
2022/03/05 02:16:01;;;;;;;0.52;0.52;;;16.10;63.60;;;;;;5055797;28;20052;-18
2022/03/05 02:18:27;;;;;;;0.80;0.80;;;16.00;63.50;;;;;;5060654;28;20043;-18
2022/03/05 02:20:53;;;;;;;0.57;0.57;;;16.00;63.60;;;;;;5055641;28;20049;-18
2022/03/05 02:23:19;;;;;;;0.52;0.52;;;16.00;63.60;;;;;;5054663;28;20045;-18
2022/03/05 02:26:13;;;;;;;0.70;0.70;;;16.00;63.70;;;;;;5053682;28;20448;-18
2022/03/05 02:28:39;;;;;;;0.70;0.70;;;16.00;63.60;;;;;;5049565;28;20410;-18
2022/03/05 02:31:05;;;;;;;0.50;0.50;;;16.00;63.60;;;;;;5055446;28;20068;-18
2022/03/05 02:33:30;;;;;;;1.25;0.93;;;15.90;63.70;;;;;;5056287;28;20649;-18
2022/03/05 02:35:56;;;;;;;0.98;0.98;;;15.90;63.80;;;;;;5062774;28;20049;-18
2022/03/05 02:38:22;;;;;;;1.05;0.95;;;15.90;63.80;;;;;;5055293;28;20402;-18
2022/03/05 02:40:48;;;;;;;0.70;0.70;;;15.90;63.70;;;;;;5057185;28;20045;-18
2022/03/05 02:43:14;;;;;;;0.75;0.70;;;15.90;63.80;;;;;;5058793;28;20044;-18
2022/03/05 02:45:40;;;;;;;0.50;0.50;;;15.90;63.50;;;;;;5036697;28;20174;-18
2022/03/05 02:48:08;;;;;;;0.88;0.88;;;16.00;63.50;;;;;;5053862;28;20045;-18
2022/03/05 02:50:34;;;;;;;0.80;0.80;;;15.90;63.60;;;;;;5054810;28;20071;-18
2022/03/05 02:52:59;;;;;;;0.75;0.70;;;15.90;63.50;;;;;;5055279;28;20486;-18
2022/03/05 02:55:25;;;;;;;0.60;0.60;;;15.90;63.50;;;;;;5054195;28;20045;-18
2022/03/05 02:57:51;;;;;;;0.80;0.80;;;15.90;63.70;;;;;;5054767;28;20517;-18
2022/03/05 03:00:16;;;;;;;0.82;0.82;;;15.90;63.60;;;;;;5055331;28;20120;-18
2022/03/05 03:02:45;;;;;;;0.40;0.40;;;15.90;63.60;;;;;;5053317;28;20037;-18
2022/03/05 03:05:10;;;;;;;0.93;0.93;;;15.90;63.60;;;;;;5065575;28;20052;-18
2022/03/05 03:07:36;;;;;;;0.80;0.80;;;15.90;63.80;;;;;;5072713;28;20032;-18
2022/03/05 03:10:03;;;;;;;0.63;0.63;;;15.90;63.70;;;;;;5073970;28;20041;-18
2022/03/05 03:12:29;;;;;;;0.60;0.60;;;15.90;63.70;;;;;;5074299;28;20052;-18
2022/03/05 03:14:54;;;;;;;0.70;0.70;;;15.90;63.60;;;;;;5069422;28;20515;-18
2022/03/05 03:17:20;;;;;;;0.70;0.70;;;15.90;63.70;;;;;;5072851;28;20037;-18
2022/03/05 03:19:45;;;;;;;0.45;0.40;;;15.80;63.80;;;;;;5065772;28;20567;-18
2022/03/05 03:22:11;;;;;;;0.63;0.63;;;15.90;63.70;;;;;;5055523;28;20452;-18
2022/03/05 03:24:37;;;;;;;0.70;0.70;;;15.90;63.70;;;;;;5064148;28;20048;-18
2022/03/05 03:27:03;;;;;;;0.75;0.57;;;15.80;63.60;;;;;;5061227;28;20580;-18
2022/03/05 03:29:29;;;;;;;0.80;0.80;;;15.80;63.60;;;;;;5054303;28;20102;-18
2022/03/05 03:31:55;;;;;;;0.63;0.63;;;15.90;63.60;;;;;;5054686;28;20041;-18
2022/03/05 03:34:21;;;;;;;0.57;0.57;;;15.90;63.60;;;;;;5056122;28;20053;-18
2022/03/05 03:36:46;;;;;;;0.65;0.65;;;15.80;63.50;;;;;;5056063;28;20045;-18
2022/03/05 03:39:12;;;;;;;1.00;0.70;;;15.90;63.60;;;;;;5060964;28;20053;-18
2022/03/05 03:41:38;;;;;;;0.50;0.50;;;15.80;63.60;;;;;;5056290;28;20371;-18
2022/03/05 03:44:03;;;;;;;0.75;0.75;;;15.80;63.60;;;;;;5064961;28;20071;-18
2022/03/05 03:46:30;;;;;;;0.50;0.50;;;15.80;63.70;;;;;;5074454;28;20070;-18
2022/03/05 03:48:55;;;;;;;0.63;0.63;;;15.80;63.40;;;;;;5073853;28;20041;-18
2022/03/05 03:51:21;;;;;;;0.52;0.52;;;15.80;63.60;;;;;;5058578;28;20041;-18
2022/03/05 03:53:46;;;;;;;0.50;0.50;;;15.80;63.60;;;;;;5057652;28;20049;-18
2022/03/05 03:56:13;;;;;;;0.60;0.60;;;15.80;63.50;;;;;;5060113;28;20052;-18
2022/03/05 03:58:39;;;;;;;0.60;0.60;;;15.90;63.60;;;;;;5064332;28;20068;-18
2022/03/05 04:01:04;;;;;;;0.63;0.63;;;15.80;63.50;;;;;;5067921;28;20041;-18
2022/03/05 04:03:30;;;;;;;1.05;0.70;;;15.80;63.60;;;;;;5056206;28;20123;-19
2022/03/05 04:05:56;;;;;;;0.50;0.50;;;15.80;63.70;;;;;;5086999;28;20049;-18
2022/03/05 04:11:07;;;;;;;0.47;0.47;;;15.70;63.80;;;;;;5058495;28;20106;-18
2022/03/05 04:13:33;;;;;;;0.63;0.63;;;15.80;63.60;;;;;;5061906;28;20045;-18
2022/03/05 04:15:58;;;;;;;0.50;0.50;;;15.70;63.60;;;;;;5058001;28;20048;-18
2022/03/05 04:18:24;;;;;;;0.70;0.70;;;15.80;63.70;;;;;;5062975;28;20036;-18
2022/03/05 04:20:50;;;;;;;0.60;0.60;;;15.80;63.60;;;;;;5069790;28;21109;-18
2022/03/05 04:23:15;;;;;;;0.40;0.40;;;15.80;63.60;;;;;;5077681;28;20387;-18
2022/03/05 04:25:41;;;;;;;0.57;0.57;;;15.80;63.50;;;;;;5069328;28;20045;-18
2022/03/05 04:28:06;;;;;;;0.68;0.68;;;15.80;63.70;;;;;;5060118;28;20035;-18
2022/03/05 04:30:32;;;;;;;0.70;0.70;;;15.80;63.60;;;;;;5057100;28;20048;-18
2022/03/05 04:32:58;;;;;;;0.50;0.50;;;15.70;63.60;;;;;;5057577;28;20083;-18
2022/03/05 04:35:23;;;;;;;0.50;0.50;;;15.80;63.60;;;;;;5056224;28;20072;-18
2022/03/05 04:37:51;;;;;;;0.50;0.50;;;15.80;63.60;;;;;;5057622;28;20033;-18
2022/03/05 04:40:17;;;;;;;0.40;0.40;;;15.80;63.60;;;;;;5062068;28;20040;-18
2022/03/05 04:42:42;;;;;;;0.70;0.60;;;15.80;63.50;;;;;;5062635;28;20037;-18
2022/03/05 04:45:09;;;;;;;0.38;0.38;;;15.80;63.40;;;;;;5055980;28;20065;-18
2022/03/05 04:47:35;;;;;;;0.60;0.60;;;15.80;63.60;;;;;;5054747;28;20406;-18
2022/03/05 04:50:01;;;;;;;0.82;0.63;;;15.80;63.50;;;;;;5057257;28;20543;-18
2022/03/05 04:52:26;;;;;;;0.50;0.50;;;15.70;63.40;;;;;;5057247;28;20419;-18
2022/03/05 04:54:52;;;;;;;0.57;0.50;;;15.70;63.70;;;;;;5056731;28;20126;-18
2022/03/05 04:57:19;;;;;;;0.50;0.50;;;15.80;63.70;;;;;;5056664;28;20466;-18
2022/03/05 04:59:44;;;;;;;0.50;0.50;;;15.70;63.40;;;;;;5056495;28;20068;-18
2022/03/05 05:02:10;;;;;;;0.63;0.57;;;15.80;63.40;;;;;;5059565;28;20051;-18
2022/03/05 05:04:35;;;;;;;0.68;0.68;;;15.80;63.50;;;;;;5069190;28;20044;-18
2022/03/05 05:07:01;;;;;;;0.70;0.70;;;15.70;63.50;;;;;;5064631;28;20574;-18
2022/03/05 05:09:27;;;;;;;0.68;0.60;;;15.80;63.30;;;;;;5057082;28;20041;-18
2022/03/05 05:11:52;;;;;;;0.60;0.60;;;15.80;63.40;;;;;;5055980;28;30671;-18
2022/03/05 05:14:18;;;;;;;0.70;0.70;;;15.70;63.60;;;;;;5056999;28;20048;-19
2022/03/05 05:16:43;;;;;;;0.50;0.50;;;15.70;63.50;;;;;;5037862;28;20481;-18
2022/03/05 05:19:24;;;;;;;0.50;0.50;;;15.70;63.50;;;;;;5067854;28;20144;-18
2022/03/05 05:21:54;;;;;;;1.05;0.68;;;15.70;63.60;;;;;;5066634;28;20495;-18
2022/03/05 05:24:20;;;;;;;0.47;0.47;;;15.70;63.50;;;;;;5056796;28;20041;-18
2022/03/05 05:26:46;;;;;;;1.25;0.60;;;15.80;63.40;;;;;;5054600;28;20135;-18
2022/03/05 05:29:11;;;;;;;0.63;0.55;;;15.80;63.30;;;;;;5056560;28;20383;-18
2022/03/05 05:31:37;;;;;;;0.63;0.60;;;15.80;63.30;;;;;;5056059;28;20049;-18
2022/03/05 05:34:02;;;;;;;0.80;0.80;;;15.70;63.40;;;;;;5056406;28;20040;-18
2022/03/05 05:36:29;;;;;;;0.68;0.50;;;15.70;63.50;;;;;;5056077;28;20060;-18
2022/03/05 05:38:55;;;;;;;0.50;0.50;;;15.70;63.50;;;;;;5054478;28;20118;-18
2022/03/05 05:41:20;;;;;;;0.63;0.50;;;15.70;63.50;;;;;;5071564;28;20240;-18
2022/03/05 05:43:46;;;;;;;0.60;0.60;;;15.70;63.40;;;;;;5055766;28;20044;-18
2022/03/05 05:46:12;;;;;;;0.40;0.40;;;15.70;63.50;;;;;;5073757;28;20056;-18
2022/03/05 05:48:37;;;;;;;0.52;0.50;;;15.70;63.40;;;;;;5066137;28;20044;-18
2022/03/05 05:51:03;;;;;;;0.70;0.70;;;15.70;63.30;;;;;;5058898;28;20414;-18
2022/03/05 05:53:29;;;;;;;0.50;0.50;;;15.70;63.50;;;;;;5054524;28;20041;-18
2022/03/05 05:55:55;;;;;;;0.68;0.68;;;15.60;63.40;;;;;;5055511;28;20044;-18
2022/03/05 05:58:21;;;;;;;0.70;0.70;;;15.60;63.60;;;;;;5054462;28;20112;-18
2022/03/05 06:00:47;;;;;;;0.68;0.47;;;15.60;63.40;;;;;;5055681;28;20505;-18
2022/03/05 06:03:12;;;;;;;0.43;0.43;;;15.60;63.50;;;;;;5056000;28;20037;-18
2022/03/05 06:05:38;;;;;;;0.40;0.40;;;15.60;63.60;;;;;;5068414;28;20148;-18
2022/03/05 06:08:04;;;;;;;0.40;0.40;;;15.70;63.30;;;;;;5071434;28;20037;-18
2022/03/05 06:10:29;;;;;;;0.77;0.60;;;15.70;63.40;;;;;;5055749;28;20351;-18
2022/03/05 06:12:55;;;;;;;0.40;0.40;;;15.60;63.40;;;;;;5055039;28;20379;-18
2022/03/05 06:15:21;;;;;;;0.50;0.50;;;15.70;64.20;;;;;;5055709;28;20049;-18
2022/03/05 06:17:46;;;;;;;0.50;0.50;;;15.60;63.40;;;;;;5053803;28;20041;-18
2022/03/05 06:20:12;;;;;;;0.45;0.45;;;15.70;64.20;;;;;;5075230;28;20072;-18
2022/03/05 06:22:38;;;;;;;0.45;0.45;;;15.60;63.40;;;;;;4719385;28;10000316;-19
2022/03/05 06:25:05;;;;;;;0.43;0.43;;;15.60;63.40;;;;;;5068650;28;20139;-18
2022/03/05 06:27:30;;;;;;;0.40;0.40;;;15.60;63.50;;;;;;5068606;28;20112;-18
2022/03/05 06:29:56;;;;;;;0.50;0.47;;;15.60;63.70;;;;;;5071171;28;20078;-18
2022/03/05 06:32:21;;;;;;;0.47;0.47;;;15.60;63.70;;;;;;5071576;28;20576;-18
2022/03/05 06:34:47;;;;;;;0.40;0.40;;;15.60;63.60;;;;;;5070362;28;20051;-18
2022/03/05 06:37:13;;;;;;;0.50;0.50;;;15.60;63.70;;;;;;5060120;28;20526;-18
2022/03/05 06:39:39;;;;;;;0.60;0.60;;;15.60;63.80;;;;;;5069130;28;20044;-19
2022/03/05 06:42:05;;;;;;;0.50;0.50;;;15.60;63.90;;;;;;5060737;28;20052;-18
2022/03/05 06:44:31;;;;;;;0.38;0.38;;;15.60;64.00;;;;;;5056552;28;20063;-18
2022/03/05 06:46:58;;;;;;;0.50;0.50;;;15.60;63.90;;;;;;5069777;28;20594;-18
2022/03/05 06:49:23;;;;;;;1.08;0.57;;;15.60;63.80;;;;;;5066866;28;20051;-18
2022/03/05 06:51:49;;;;;;;0.55;0.55;;;15.60;63.80;;;;;;5061388;28;20513;-18
2022/03/05 06:54:14;;;;;;;0.40;0.40;;;15.60;63.90;;;;;;5060461;28;20048;-18
2022/03/05 06:56:40;;;;;;;0.50;0.50;;;15.60;63.90;;;;;;5067915;28;20041;-19
2022/03/05 06:59:06;;;;;;;0.30;0.30;;;15.60;63.80;;;;;;5064674;28;20045;-18
2022/03/05 07:01:31;;;;;;;0.60;0.45;;;15.60;63.60;;;;;;5069892;28;20121;-18
2022/03/05 07:03:57;;;;;;;0.50;0.50;;;15.60;63.80;;;;;;5069517;28;20047;-18
2022/03/05 07:06:22;;;;;;;0.55;0.50;;;15.60;63.80;;;;;;5071231;28;20072;-18
2022/03/05 07:08:48;;;;;;;0.40;0.40;;;15.60;63.70;;;;;;5070988;28;20127;-18
2022/03/05 07:11:14;;;;;;;0.95;0.65;;;15.60;63.80;;;;;;5075355;28;20078;-18
2022/03/05 07:13:40;;;;;;;0.40;0.40;;;15.60;64.00;;;;;;5074939;28;20513;-18
2022/03/05 07:16:05;;;;;;;0.50;0.50;;;15.60;63.80;;;;;;5067160;28;20052;-18
2022/03/05 07:18:31;;;;;;;0.40;0.40;;;15.60;63.80;;;;;;5074913;28;20120;-20
2022/03/05 07:20:59;;;;;;;0.50;0.50;;;15.60;64.20;;;;;;5067133;28;20104;-18
2022/03/05 07:23:25;;;;;;;0.50;0.50;;;15.60;64.30;;;;;;5071826;28;20145;-18
2022/03/05 07:25:51;;;;;;;0.50;0.50;;;15.50;64.60;;;;;;5073568;28;20048;-21
2022/03/05 07:28:16;;;;;;;1.58;0.40;;;15.60;64.60;;;;;;5056217;28;20087;-18
2022/03/05 07:30:45;;;;;;;0.50;0.50;;;15.60;64.60;;;;;;5062463;28;20509;-20
2022/03/05 07:33:11;;;;;;;0.40;0.40;;;15.60;64.30;;;;;;5071424;28;20051;-18
2022/03/05 07:35:36;;;;;;;0.43;0.40;;;15.60;64.40;;;;;;5075034;28;20045;-18
2022/03/05 07:38:02;;;;;;;2.03;0.60;;;15.70;64.10;;;;;;5059785;28;20055;-18
2022/03/05 07:40:28;;;;;;;0.60;0.50;;;15.70;64.10;;;;;;5073007;28;20520;-18
2022/03/05 07:42:54;;;;;;;0.50;0.40;;;15.60;64.20;;;;;;5064904;28;20052;-18
2022/03/05 07:45:19;;;;;;;0.98;0.60;;;15.60;64.10;;;;;;5054858;28;20547;-18
2022/03/05 07:47:45;;;;;;;0.70;0.70;;;15.60;64.30;;;;;;5058132;28;20045;-21
2022/03/05 07:50:10;;;;;;;0.57;0.57;;;15.60;64.70;;;;;;5071329;28;20106;-19
2022/03/05 07:52:36;;;;;;;0.60;0.50;;;15.60;64.50;;;;;;5068617;28;20390;-18
2022/03/05 07:55:02;;;;;;;1.58;0.50;;;15.60;64.30;;;;;;5060938;28;20029;-18
2022/03/05 07:57:28;;;;;;;0.77;0.60;;;15.60;64.60;;;;;;5054808;28;20036;-23
2022/03/05 07:59:53;;;;;;;0.40;0.40;;;15.60;64.60;;;;;;5053607;28;20561;-18
2022/03/05 08:02:19;;;;;;;0.52;0.52;;;15.60;65.30;;;;;;5058674;28;20044;-18
2022/03/05 08:04:45;;;;;;;1.38;0.60;;;15.60;64.40;;;;;;5065033;28;20044;-19
2022/03/05 08:07:10;;;;;;;0.30;0.30;;;15.60;64.60;;;;;;5070520;28;20067;-18
2022/03/05 08:09:36;;;;;;;0.70;0.52;;;15.60;64.50;;;;;;5055791;28;20048;-18
2022/03/05 08:12:05;;;;;;;0.50;0.50;;;15.60;64.60;;;;;;5051531;28;20051;-18
2022/03/05 08:14:30;;;;;;;2.15;0.70;;;15.60;64.60;;;;;;5054395;28;20037;-19
2022/03/05 08:16:56;;;;;;;0.63;0.50;;;15.60;64.40;;;;;;5054118;28;20110;-18
2022/03/05 08:19:21;;;;;;;0.52;0.40;;;15.60;64.60;;;;;;5061695;28;20067;-18
2022/03/05 08:21:47;;;;;;;0.47;0.43;;;15.60;64.50;;;;;;5071951;28;20071;-23
2022/03/05 08:24:13;;;;;;;0.60;0.40;;;15.60;64.40;;;;;;5070330;28;20062;-19
2022/03/05 08:26:38;;;;;;;0.30;0.30;;;15.70;64.40;;;;;;5071264;28;20044;-18
2022/03/05 08:29:04;;;;;;;0.50;0.50;;;15.70;64.30;;;;;;5068746;28;20987;-19
2022/03/05 08:31:31;;;;;;;3.10;0.30;;;15.70;64.30;;;;;;5055976;28;20044;-19
2022/03/05 08:33:58;;;;;;;0.35;0.35;;;15.70;64.10;;;;;;5061203;28;20056;-18
2022/03/05 08:36:24;;;;;;;0.30;0.30;;;15.70;63.80;;;;;;5067606;28;20040;-19
2022/03/05 08:38:50;;;;;;;0.82;0.50;;;15.70;64.20;;;;;;5067714;28;20048;-19
2022/03/05 08:41:15;;;;;;;0.40;0.30;;;15.70;64.40;;;;;;5055201;28;20557;-18
2022/03/05 08:43:42;;;;;;;0.40;0.40;;;15.80;64.30;;;;;;5056562;28;20126;-18
2022/03/05 08:46:08;;;;;;;0.52;0.40;;;15.80;64.20;;;;;;5048137;28;20067;-19
2022/03/05 08:48:34;;;;;;;0.40;0.40;;;15.80;64.20;;;;;;5070982;28;20413;-19
2022/03/05 08:51:00;;;;;;;0.30;0.30;;;15.80;64.10;;;;;;5072460;28;20048;-18
2022/03/05 08:53:25;;;;;;;0.50;0.50;;;15.80;64.00;;;;;;5057755;28;20131;-22
2022/03/05 08:55:51;;;;;;;0.40;0.30;;;15.80;64.10;;;;;;5053232;28;20447;-19
2022/03/05 08:58:17;;;;;;;0.30;0.30;;;15.80;64.00;;;;;;5067031;28;20108;-19
2022/03/05 09:00:42;;;;;;;0.50;0.40;;;15.80;63.90;;;;;;5067645;28;20060;-18
2022/03/05 09:03:08;;;;;;;1.20;0.47;;;15.80;63.90;;;;;;5063333;28;20470;-18
2022/03/05 09:05:34;;;;;;;0.30;0.30;;;15.80;63.70;;;;;;5059006;28;20068;-19
2022/03/05 09:07:59;;;;;;;0.80;0.50;;;15.80;63.60;;;;;;5068099;28;20052;-18
2022/03/05 09:10:25;;;;;;;0.40;0.40;;;15.80;63.60;;;;;;5073881;28;20048;-19
2022/03/05 09:12:50;;;;;;;0.30;0.30;;;15.80;63.60;;;;;;5074465;28;20522;-19
2022/03/05 09:15:16;;;;;;;0.40;0.40;;;15.90;63.30;;;;;;5076787;28;20036;-18
2022/03/05 09:17:42;;;;;;;0.35;0.35;;;15.90;63.40;;;;;;5058802;28;20036;-19
2022/03/05 09:20:10;;;;;;;1.85;0.55;;;15.80;63.60;;;;;;5062339;28;20072;-18
2022/03/05 09:22:35;;;;;;;0.30;0.25;;;15.90;63.60;;;;;;5069840;28;20081;-18
2022/03/05 09:25:01;;;;;;;0.47;0.40;;;15.90;63.60;;;;;;5061158;28;20068;-18
2022/03/05 09:27:27;;;;;;;0.50;0.50;;;15.90;63.50;;;;;;5075445;28;20047;-18
2022/03/05 09:29:52;;;;;;;0.50;0.50;;;15.90;63.60;;;;;;5073143;28;20051;-19
2022/03/05 09:32:18;;;;;;;0.43;0.40;;;15.90;63.80;;;;;;5055886;28;20048;-18
2022/03/05 09:34:43;;;;;;;0.40;0.40;;;15.90;63.70;;;;;;5054865;28;20125;-18
2022/03/05 09:37:09;;;;;;;0.50;0.50;;;15.90;63.70;;;;;;5056079;28;20056;-18
2022/03/05 09:39:36;;;;;;;0.70;0.50;;;15.90;63.60;;;;;;5069434;28;20041;-18
2022/03/05 09:42:04;;;;;;;1.20;0.80;;;16.00;63.40;;;;;;5057707;28;20056;-19
2022/03/05 09:44:29;;;;;;;3.40;0.43;;;16.00;63.30;;;;;;5060370;28;20555;-19
2022/03/05 09:46:55;;;;;;;0.70;0.45;;;16.00;63.30;;;;;;5070781;28;20479;-18
2022/03/05 09:49:21;;;;;;;1.52;0.45;;;16.00;63.30;;;;;;5066933;28;20059;-19
2022/03/05 09:51:46;;;;;;;1.63;0.80;;;16.10;63.30;;;;;;5065601;28;20116;-18
2022/03/05 09:54:12;;;;;;;3.70;0.60;;;16.10;63.20;;;;;;5073194;28;20077;-18
2022/03/05 09:56:37;;;;;;;3.38;0.77;;;16.10;63.20;;;;;;5072795;28;20051;-18
2022/03/05 09:59:03;;;;;;;1.63;0.40;;;16.10;63.10;;;;;;5063296;28;20045;-19
2022/03/05 10:01:29;;;;;;;0.75;0.40;;;16.10;63.20;;;;;;5065234;28;20044;-18
2022/03/05 10:03:57;;;;;;;0.73;0.63;;;16.10;63.10;;;;;;5064841;28;20040;-19
2022/03/05 10:06:27;;;;;;;1.92;0.70;;;16.10;63.20;;;;;;5063482;28;20447;-18
2022/03/05 10:08:55;;;;;;;1.65;0.40;;;16.10;63.10;;;;;;5061820;28;20041;-19
2022/03/05 10:11:21;;;;;;;1.40;0.40;;;16.10;63.10;;;;;;5069448;28;20583;-19
2022/03/05 10:13:47;;;;;;;1.98;0.50;;;16.10;63.00;;;;;;5065317;28;20036;-19
2022/03/05 10:16:33;;;;;;;1.20;0.70;;;16.10;63.00;;;;;;5070071;28;20060;-19
2022/03/05 10:19:23;;;;;;;0.45;0.43;;;16.10;63.00;;;;;;5069529;28;20068;-19
2022/03/05 10:22:03;;;;;;;0.85;0.43;;;16.20;63.20;;;;;;5060380;28;20094;-18
2022/03/05 10:24:39;;;;;;;0.68;0.32;;;16.20;63.10;;;;;;5084437;28;20041;-19
2022/03/05 10:27:06;;;;;;;0.28;0.28;;;16.20;63.10;;;;;;5063209;28;20067;-18
2022/03/05 10:29:36;;;;;;;0.40;0.30;;;16.20;63.20;;;;;;5055561;28;20109;-18
2022/03/05 10:32:09;;;;;;;1.02;0.50;;;16.20;63.10;;;;;;5053641;28;20136;-19
2022/03/05 10:34:49;;;;;;;2.30;0.40;;;16.20;62.90;;;;;;5055391;28;20033;-18
2022/03/05 10:37:14;;;;;;;0.60;0.30;;;16.30;63.00;;;;;;5054730;28;20075;-19
2022/03/05 10:39:40;;;;;;;1.13;0.43;;;16.30;62.90;;;;;;5054210;28;20505;-18
2022/03/05 10:42:22;;;;;;;0.30;0.30;;;16.30;62.80;;;;;;5054562;28;20045;-19
2022/03/05 10:45:07;;;;;;;5.75;0.52;;;16.30;62.60;;;;;;5054798;28;20041;-18
2022/03/05 10:47:37;;;;;;;0.47;0.47;;;16.30;62.80;;;;;;5070081;28;20353;-18
2022/03/05 10:50:07;;;;;;;0.98;0.30;;;16.30;62.90;;;;;;5053447;28;20052;-18
2022/03/05 10:52:46;;;;;;;1.17;0.50;;;16.30;62.80;;;;;;4693751;28;10000663;-18
2022/03/05 10:55:16;;;;;;;1.70;0.30;;;16.30;62.80;;;;;;5070928;28;20109;-19
2022/03/05 10:57:55;;;;;;;0.30;0.30;;;16.40;62.80;;;;;;5067382;28;20079;-19
2022/03/05 11:00:21;;;;;;;5.63;0.60;;;16.40;63.00;;;;;;5069483;28;20054;-19
2022/03/05 11:02:47;;;;;;;0.95;0.30;;;16.30;63.00;;;;;;5071701;28;20048;-18
2022/03/05 11:05:13;;;;;;;1.13;0.20;;;16.40;63.00;;;;;;5069560;28;20076;-18
2022/03/05 11:07:39;;;;;;;0.38;0.38;;;16.40;62.90;;;;;;5070649;28;20474;-19
2022/03/05 11:10:05;;;;;;;0.40;0.40;;;16.40;63.00;;;;;;5060148;28;20045;-19
2022/03/05 11:12:31;;;;;;;0.80;0.50;;;16.50;62.90;;;;;;5063750;28;20040;-18
2022/03/05 11:14:57;;;;;;;0.43;0.30;;;16.50;62.80;;;;;;5072016;28;20053;-19
2022/03/05 11:17:22;;;;;;;1.20;0.52;;;16.50;62.60;;;;;;5055542;28;20048;-18
2022/03/05 11:19:48;;;;;;;0.40;0.40;;;16.50;62.70;;;;;;5060607;28;20061;-18
2022/03/05 11:22:16;;;;;;;1.77;0.40;;;16.50;62.80;;;;;;5067008;28;20063;-19
2022/03/05 11:24:45;;;;;;;0.57;0.30;;;16.50;62.60;;;;;;5068095;28;20049;-19
2022/03/05 11:27:14;;;;;;;0.43;0.30;;;16.50;62.50;;;;;;5065676;28;20512;-19
2022/03/05 11:29:59;;;;;;;1.75;0.30;;;16.60;62.60;;;;;;5064091;28;20076;-19
2022/03/05 11:32:32;;;;;;;0.60;0.30;;;16.60;62.60;;;;;;5062502;28;20087;-19
2022/03/05 11:34:58;;;;;;;0.70;0.35;;;16.60;62.50;;;;;;5046426;28;20098;-19
2022/03/05 11:37:25;;;;;;;2.22;0.30;;;16.60;62.50;;;;;;5067632;28;20053;-20
2022/03/05 11:39:52;;;;;;;1.20;0.30;;;16.60;62.40;;;;;;5065761;28;20543;-19
2022/03/05 11:42:30;;;;;;;2.47;0.20;;;16.60;62.40;;;;;;5064136;28;20044;-19
2022/03/05 11:44:56;;;;;;;0.40;0.30;;;16.60;62.40;;;;;;5066071;28;20055;-19
2022/03/05 11:47:24;;;;;;;0.30;0.30;;;16.60;62.50;;;;;;5064442;28;20052;-19
2022/03/05 11:49:56;;;;;;;0.65;0.40;;;16.60;62.30;;;;;;5063054;28;20045;-19
2022/03/05 11:52:22;;;;;;;0.50;0.30;;;16.70;62.40;;;;;;5058971;28;20045;-18
2022/03/05 11:55:13;;;;;;;0.30;0.30;;;16.60;62.30;;;;;;5057641;28;20063;-19
2022/03/05 11:57:42;;;;;;;0.40;0.20;;;16.60;62.20;;;;;;5063799;28;20083;-19
2022/03/05 12:00:09;;;;;;;0.30;0.30;;;16.60;62.20;;;;;;5066183;28;20048;-19
2022/03/05 12:02:40;;;;;;;0.20;0.20;;;16.60;62.20;;;;;;5072719;28;20137;-18
2022/03/05 12:05:06;;;;;;;1.27;0.35;;;16.70;62.10;;;;;;5072258;28;20040;-19
2022/03/05 12:07:36;;;;;;;0.65;0.40;;;16.70;62.10;;;;;;5068447;28;20106;-19
2022/03/05 12:10:04;;;;;;;0.30;0.20;;;16.70;62.20;;;;;;5056182;28;20051;-19
2022/03/05 12:12:50;;;;;;;0.13;0.13;;;16.70;62.10;;;;;;5068277;28;20060;-19
2022/03/05 12:15:15;;;;;;;0.98;0.40;;;16.70;62.10;;;;;;5067980;28;20044;-19
2022/03/05 12:17:46;;;;;;;0.20;0.20;;;16.60;62.10;;;;;;5069177;28;20044;-19
2022/03/05 12:20:13;;;;;;;0.77;0.47;;;16.70;62.10;;;;;;5070256;28;20164;-19
2022/03/05 12:22:58;;;;;;;0.20;0.20;;;16.70;62.00;;;;;;5063370;28;20073;-19
2022/03/05 12:25:24;;;;;;;0.38;0.30;;;16.70;61.90;;;;;;5068555;28;20057;-19
2022/03/05 12:27:51;;;;;;;0.28;0.22;;;16.70;61.80;;;;;;5068509;28;20087;-19
2022/03/05 12:30:17;;;;;;;0.35;0.32;;;16.80;61.80;;;;;;5067251;28;20064;-19
2022/03/05 12:32:45;;;;;;;0.85;0.22;;;16.80;62.10;;;;;;5065726;28;20052;-19
2022/03/05 12:35:11;;;;;;;0.30;0.30;;;16.70;62.10;;;;;;5066103;28;20075;-19
2022/03/05 12:37:37;;;;;;;0.57;0.28;;;16.70;62.10;;;;;;5062069;28;20497;-19
2022/03/05 12:40:04;;;;;;;0.20;0.20;;;16.70;62.00;;;;;;5056484;28;20053;-19
2022/03/05 12:42:42;;;;;;;0.20;0.20;;;16.70;62.10;;;;;;5057544;28;20106;-19
2022/03/05 12:45:14;;;;;;;1.38;0.22;;;16.80;62.10;;;;;;5063964;28;20093;-19
2022/03/05 12:47:40;;;;;;;0.30;0.25;;;16.80;62.10;;;;;;5065608;28;20044;-19